sensor_id;sensor_type;location;lat;lon;timestamp;temperature;humidity
30648;DHT22;17683;53.360;9.736;2023-02-17T00:00:46;8.30;99.90
30648;DHT22;17683;53.360;9.736;2023-02-17T00:03:11;8.30;99.90
30648;DHT22;17683;53.360;9.736;2023-02-17T00:05:40;8.30;99.90
30648;DHT22;17683;53.360;9.736;2023-02-17T00:08:06;8.30;99.90
30648;DHT22;17683;53.360;9.736;2023-02-17T00:10:31;8.30;99.90
30648;DHT22;17683;53.360;9.736;2023-02-17T00:12:57;8.30;99.90
30648;DHT22;17683;53.360;9.736;2023-02-17T00:15:23;8.30;99.90
30648;DHT22;17683;53.360;9.736;2023-02-17T00:17:48;8.30;99.90
30648;DHT22;17683;53.360;9.736;2023-02-17T00:20:14;8.30;99.90
30648;DHT22;17683;53.360;9.736;2023-02-17T00:22:40;8.30;99.90
30648;DHT22;17683;53.360;9.736;2023-02-17T00:25:06;8.30;99.90
30648;DHT22;17683;53.360;9.736;2023-02-17T00:27:32;8.30;99.90
30648;DHT22;17683;53.360;9.736;2023-02-17T00:29:57;8.30;99.90
30648;DHT22;17683;53.360;9.736;2023-02-17T00:32:23;8.30;99.90
30648;DHT22;17683;53.360;9.736;2023-02-17T00:34:51;8.30;99.90
30648;DHT22;17683;53.360;9.736;2023-02-17T00:37:17;8.30;99.90
30648;DHT22;17683;53.360;9.736;2023-02-17T00:39:42;8.30;99.90
30648;DHT22;17683;53.360;9.736;2023-02-17T00:42:08;8.40;99.90
30648;DHT22;17683;53.360;9.736;2023-02-17T00:44:34;8.30;99.90
30648;DHT22;17683;53.360;9.736;2023-02-17T00:46:59;8.30;99.90
30648;DHT22;17683;53.360;9.736;2023-02-17T00:49:26;8.40;99.90
30648;DHT22;17683;53.360;9.736;2023-02-17T00:51:52;8.40;99.90
30648;DHT22;17683;53.360;9.736;2023-02-17T00:54:18;8.40;99.90
30648;DHT22;17683;53.360;9.736;2023-02-17T00:56:45;8.40;99.90
30648;DHT22;17683;53.360;9.736;2023-02-17T00:59:11;8.40;99.90
30648;DHT22;17683;53.360;9.736;2023-02-17T01:01:37;8.40;99.90
30648;DHT22;17683;53.360;9.736;2023-02-17T01:04:03;8.40;99.90
30648;DHT22;17683;53.360;9.736;2023-02-17T01:06:31;8.40;99.90
30648;DHT22;17683;53.360;9.736;2023-02-17T01:08:57;8.40;99.90
30648;DHT22;17683;53.360;9.736;2023-02-17T01:11:26;8.40;99.90
30648;DHT22;17683;53.360;9.736;2023-02-17T01:13:53;8.50;99.90
30648;DHT22;17683;53.360;9.736;2023-02-17T01:16:24;8.50;99.90
30648;DHT22;17683;53.360;9.736;2023-02-17T01:18:51;8.50;99.90
30648;DHT22;17683;53.360;9.736;2023-02-17T01:21:22;8.60;99.90
30648;DHT22;17683;53.360;9.736;2023-02-17T01:23:50;8.50;99.90
30648;DHT22;17683;53.360;9.736;2023-02-17T01:26:20;8.60;99.90
30648;DHT22;17683;53.360;9.736;2023-02-17T01:28:46;8.50;99.90
30648;DHT22;17683;53.360;9.736;2023-02-17T01:31:12;8.50;99.90
30648;DHT22;17683;53.360;9.736;2023-02-17T01:33:39;8.60;99.90
30648;DHT22;17683;53.360;9.736;2023-02-17T01:36:09;8.60;99.90
30648;DHT22;17683;53.360;9.736;2023-02-17T01:38:36;8.60;99.90
30648;DHT22;17683;53.360;9.736;2023-02-17T01:41:03;8.60;99.90
30648;DHT22;17683;53.360;9.736;2023-02-17T01:43:29;8.70;99.90
30648;DHT22;17683;53.360;9.736;2023-02-17T01:46:00;8.60;99.90
30648;DHT22;17683;53.360;9.736;2023-02-17T01:48:47;8.70;99.90
30648;DHT22;17683;53.360;9.736;2023-02-17T01:51:19;8.70;99.90
30648;DHT22;17683;53.360;9.736;2023-02-17T01:53:53;8.70;99.90
30648;DHT22;17683;53.360;9.736;2023-02-17T01:56:21;8.70;99.90
30648;DHT22;17683;53.360;9.736;2023-02-17T01:58:54;8.70;99.90
30648;DHT22;17683;53.360;9.736;2023-02-17T02:01:21;8.70;99.90
30648;DHT22;17683;53.360;9.736;2023-02-17T02:03:48;8.70;99.90
30648;DHT22;17683;53.360;9.736;2023-02-17T02:06:19;8.70;99.90
30648;DHT22;17683;53.360;9.736;2023-02-17T02:11:15;8.70;99.90
30648;DHT22;17683;53.360;9.736;2023-02-17T02:13:41;8.70;99.90
30648;DHT22;17683;53.360;9.736;2023-02-17T02:16:26;8.70;99.90
30648;DHT22;17683;53.360;9.736;2023-02-17T02:24:42;8.80;99.90
30648;DHT22;17683;53.360;9.736;2023-02-17T02:30:21;8.70;99.90
30648;DHT22;17683;53.360;9.736;2023-02-17T02:32:56;8.80;99.90
30648;DHT22;17683;53.360;9.736;2023-02-17T02:35:27;8.80;99.90
30648;DHT22;17683;53.360;9.736;2023-02-17T02:38:21;8.80;99.90
30648;DHT22;17683;53.360;9.736;2023-02-17T02:40:56;8.90;99.90
30648;DHT22;17683;53.360;9.736;2023-02-17T02:43:23;8.90;99.90
30648;DHT22;17683;53.360;9.736;2023-02-17T02:45:49;8.90;99.90
30648;DHT22;17683;53.360;9.736;2023-02-17T02:48:15;8.90;99.90
30648;DHT22;17683;53.360;9.736;2023-02-17T02:53:52;8.90;99.90
30648;DHT22;17683;53.360;9.736;2023-02-17T02:56:32;8.90;99.90
30648;DHT22;17683;53.360;9.736;2023-02-17T02:59:12;9.00;99.90
30648;DHT22;17683;53.360;9.736;2023-02-17T03:04:53;9.00;99.90
30648;DHT22;17683;53.360;9.736;2023-02-17T03:07:32;8.90;99.90
30648;DHT22;17683;53.360;9.736;2023-02-17T03:09:59;8.90;99.90
30648;DHT22;17683;53.360;9.736;2023-02-17T03:12:26;9.00;99.90
30648;DHT22;17683;53.360;9.736;2023-02-17T03:14:58;9.00;99.90
30648;DHT22;17683;53.360;9.736;2023-02-17T03:17:25;9.00;99.90
30648;DHT22;17683;53.360;9.736;2023-02-17T03:19:51;9.00;99.90
30648;DHT22;17683;53.360;9.736;2023-02-17T03:22:27;9.00;99.90
30648;DHT22;17683;53.360;9.736;2023-02-17T03:24:55;9.00;99.90
30648;DHT22;17683;53.360;9.736;2023-02-17T03:27:20;9.00;99.90
30648;DHT22;17683;53.360;9.736;2023-02-17T03:29:46;9.00;99.90
30648;DHT22;17683;53.360;9.736;2023-02-17T03:32:12;9.10;99.90
30648;DHT22;17683;53.360;9.736;2023-02-17T03:34:37;9.10;99.90
30648;DHT22;17683;53.360;9.736;2023-02-17T03:37:03;9.10;99.90
30648;DHT22;17683;53.360;9.736;2023-02-17T03:39:29;9.00;99.90
30648;DHT22;17683;53.360;9.736;2023-02-17T03:41:56;9.00;99.90
30648;DHT22;17683;53.360;9.736;2023-02-17T03:44:21;9.10;99.90
30648;DHT22;17683;53.360;9.736;2023-02-17T03:46:47;9.10;99.90
30648;DHT22;17683;53.360;9.736;2023-02-17T03:49:13;9.00;99.90
30648;DHT22;17683;53.360;9.736;2023-02-17T03:51:39;9.10;99.90
30648;DHT22;17683;53.360;9.736;2023-02-17T03:54:05;9.00;99.90
30648;DHT22;17683;53.360;9.736;2023-02-17T03:56:31;9.10;99.90
30648;DHT22;17683;53.360;9.736;2023-02-17T03:58:57;9.10;99.90
30648;DHT22;17683;53.360;9.736;2023-02-17T04:01:22;9.10;99.90
30648;DHT22;17683;53.360;9.736;2023-02-17T04:03:48;9.10;99.90
30648;DHT22;17683;53.360;9.736;2023-02-17T04:06:14;9.10;99.90
30648;DHT22;17683;53.360;9.736;2023-02-17T04:08:40;9.10;99.90
30648;DHT22;17683;53.360;9.736;2023-02-17T04:11:07;9.10;99.90
30648;DHT22;17683;53.360;9.736;2023-02-17T04:13:33;9.20;99.90
30648;DHT22;17683;53.360;9.736;2023-02-17T04:15:59;9.20;99.90
30648;DHT22;17683;53.360;9.736;2023-02-17T04:18:29;9.20;99.90
30648;DHT22;17683;53.360;9.736;2023-02-17T04:20:55;9.20;99.90
30648;DHT22;17683;53.360;9.736;2023-02-17T04:23:22;9.20;99.90
30648;DHT22;17683;53.360;9.736;2023-02-17T04:25:48;9.20;99.90
30648;DHT22;17683;53.360;9.736;2023-02-17T04:28:14;9.20;99.90
30648;DHT22;17683;53.360;9.736;2023-02-17T04:30:44;9.20;99.90
30648;DHT22;17683;53.360;9.736;2023-02-17T04:33:10;9.20;99.90
30648;DHT22;17683;53.360;9.736;2023-02-17T04:35:37;9.20;99.90
30648;DHT22;17683;53.360;9.736;2023-02-17T04:38:03;9.30;99.90
30648;DHT22;17683;53.360;9.736;2023-02-17T04:40:29;9.20;99.90
30648;DHT22;17683;53.360;9.736;2023-02-17T04:42:55;9.20;99.90
30648;DHT22;17683;53.360;9.736;2023-02-17T04:45:21;9.30;99.90
30648;DHT22;17683;53.360;9.736;2023-02-17T04:47:47;9.30;99.90
30648;DHT22;17683;53.360;9.736;2023-02-17T04:50:13;9.30;99.90
30648;DHT22;17683;53.360;9.736;2023-02-17T04:52:38;9.20;99.90
30648;DHT22;17683;53.360;9.736;2023-02-17T04:55:05;9.30;99.90
30648;DHT22;17683;53.360;9.736;2023-02-17T04:57:31;9.30;99.90
30648;DHT22;17683;53.360;9.736;2023-02-17T04:59:57;9.30;99.90
30648;DHT22;17683;53.360;9.736;2023-02-17T05:02:22;9.30;99.90
30648;DHT22;17683;53.360;9.736;2023-02-17T05:04:51;9.30;99.90
30648;DHT22;17683;53.360;9.736;2023-02-17T05:07:18;9.30;99.90
30648;DHT22;17683;53.360;9.736;2023-02-17T05:09:43;9.30;99.90
30648;DHT22;17683;53.360;9.736;2023-02-17T05:12:09;9.30;99.90
30648;DHT22;17683;53.360;9.736;2023-02-17T05:14:35;9.30;99.90
30648;DHT22;17683;53.360;9.736;2023-02-17T05:17:01;9.30;99.90
30648;DHT22;17683;53.360;9.736;2023-02-17T05:19:26;9.40;99.90
30648;DHT22;17683;53.360;9.736;2023-02-17T05:21:52;9.40;99.90
30648;DHT22;17683;53.360;9.736;2023-02-17T05:24:17;9.40;99.90
30648;DHT22;17683;53.360;9.736;2023-02-17T05:26:43;9.30;99.90
30648;DHT22;17683;53.360;9.736;2023-02-17T05:29:09;9.40;99.90
30648;DHT22;17683;53.360;9.736;2023-02-17T05:31:35;9.40;99.90
30648;DHT22;17683;53.360;9.736;2023-02-17T05:34:01;9.40;99.90
30648;DHT22;17683;53.360;9.736;2023-02-17T05:36:26;9.40;99.90
30648;DHT22;17683;53.360;9.736;2023-02-17T05:38:53;9.40;99.90
30648;DHT22;17683;53.360;9.736;2023-02-17T05:41:18;9.30;99.90
30648;DHT22;17683;53.360;9.736;2023-02-17T05:43:45;9.40;99.90
30648;DHT22;17683;53.360;9.736;2023-02-17T05:46:11;9.40;99.90
30648;DHT22;17683;53.360;9.736;2023-02-17T05:48:37;9.40;99.90
30648;DHT22;17683;53.360;9.736;2023-02-17T05:51:03;9.40;99.90
30648;DHT22;17683;53.360;9.736;2023-02-17T05:53:29;9.40;99.90
30648;DHT22;17683;53.360;9.736;2023-02-17T05:55:55;9.40;99.90
30648;DHT22;17683;53.360;9.736;2023-02-17T05:58:21;9.40;99.90
30648;DHT22;17683;53.360;9.736;2023-02-17T06:00:47;9.40;99.90
30648;DHT22;17683;53.360;9.736;2023-02-17T06:03:13;9.40;99.90
30648;DHT22;17683;53.360;9.736;2023-02-17T06:05:39;9.40;99.90
30648;DHT22;17683;53.360;9.736;2023-02-17T06:08:05;9.30;99.90
30648;DHT22;17683;53.360;9.736;2023-02-17T06:10:31;9.40;99.90
30648;DHT22;17683;53.360;9.736;2023-02-17T06:12:57;9.40;99.90
30648;DHT22;17683;53.360;9.736;2023-02-17T06:15:23;9.40;99.90
30648;DHT22;17683;53.360;9.736;2023-02-17T06:17:48;9.40;99.90
30648;DHT22;17683;53.360;9.736;2023-02-17T06:20:14;9.40;99.90
30648;DHT22;17683;53.360;9.736;2023-02-17T06:22:41;9.40;99.90
30648;DHT22;17683;53.360;9.736;2023-02-17T06:25:07;9.40;99.90
30648;DHT22;17683;53.360;9.736;2023-02-17T06:27:33;9.50;99.90
30648;DHT22;17683;53.360;9.736;2023-02-17T06:29:59;9.40;99.90
30648;DHT22;17683;53.360;9.736;2023-02-17T06:32:25;9.50;99.90
30648;DHT22;17683;53.360;9.736;2023-02-17T06:34:50;9.40;99.90
30648;DHT22;17683;53.360;9.736;2023-02-17T06:37:16;9.40;99.90
30648;DHT22;17683;53.360;9.736;2023-02-17T06:39:42;9.40;99.90
30648;DHT22;17683;53.360;9.736;2023-02-17T06:42:07;9.40;99.90
30648;DHT22;17683;53.360;9.736;2023-02-17T06:44:33;9.40;99.90
30648;DHT22;17683;53.360;9.736;2023-02-17T06:46:59;9.40;99.90
30648;DHT22;17683;53.360;9.736;2023-02-17T06:49:24;9.40;99.90
30648;DHT22;17683;53.360;9.736;2023-02-17T06:51:50;9.40;99.90
30648;DHT22;17683;53.360;9.736;2023-02-17T06:54:16;9.40;99.90
30648;DHT22;17683;53.360;9.736;2023-02-17T06:56:41;9.50;99.90
30648;DHT22;17683;53.360;9.736;2023-02-17T06:59:07;9.50;99.90
30648;DHT22;17683;53.360;9.736;2023-02-17T07:01:33;9.50;99.90
30648;DHT22;17683;53.360;9.736;2023-02-17T07:03:59;9.50;99.90
30648;DHT22;17683;53.360;9.736;2023-02-17T07:06:25;9.50;99.90
30648;DHT22;17683;53.360;9.736;2023-02-17T07:08:51;9.50;99.90
30648;DHT22;17683;53.360;9.736;2023-02-17T07:11:18;9.50;99.90
30648;DHT22;17683;53.360;9.736;2023-02-17T07:13:44;9.50;99.90
30648;DHT22;17683;53.360;9.736;2023-02-17T07:16:12;9.50;99.90
30648;DHT22;17683;53.360;9.736;2023-02-17T07:18:38;9.50;99.90
30648;DHT22;17683;53.360;9.736;2023-02-17T07:21:05;9.50;99.90
30648;DHT22;17683;53.360;9.736;2023-02-17T07:23:30;9.50;99.90
30648;DHT22;17683;53.360;9.736;2023-02-17T07:26:01;9.50;99.90
30648;DHT22;17683;53.360;9.736;2023-02-17T07:28:27;9.50;99.90
30648;DHT22;17683;53.360;9.736;2023-02-17T07:30:53;9.50;99.90
30648;DHT22;17683;53.360;9.736;2023-02-17T07:33:19;9.50;99.90
30648;DHT22;17683;53.360;9.736;2023-02-17T07:35:44;9.50;99.90
30648;DHT22;17683;53.360;9.736;2023-02-17T07:38:11;9.50;99.90
30648;DHT22;17683;53.360;9.736;2023-02-17T07:40:37;9.50;99.90
30648;DHT22;17683;53.360;9.736;2023-02-17T07:43:03;9.50;99.90
30648;DHT22;17683;53.360;9.736;2023-02-17T07:45:29;9.60;99.90
30648;DHT22;17683;53.360;9.736;2023-02-17T07:47:55;9.50;99.90
30648;DHT22;17683;53.360;9.736;2023-02-17T07:50:20;9.50;99.90
30648;DHT22;17683;53.360;9.736;2023-02-17T07:52:46;9.50;99.90
30648;DHT22;17683;53.360;9.736;2023-02-17T07:55:12;9.60;99.90
30648;DHT22;17683;53.360;9.736;2023-02-17T07:57:38;9.60;99.90
30648;DHT22;17683;53.360;9.736;2023-02-17T08:00:04;9.60;99.90
30648;DHT22;17683;53.360;9.736;2023-02-17T08:02:30;9.60;99.90
30648;DHT22;17683;53.360;9.736;2023-02-17T08:04:56;9.60;99.90
30648;DHT22;17683;53.360;9.736;2023-02-17T08:07:22;9.60;99.90
30648;DHT22;17683;53.360;9.736;2023-02-17T08:09:47;9.60;99.90
30648;DHT22;17683;53.360;9.736;2023-02-17T08:12:32;9.60;99.90
30648;DHT22;17683;53.360;9.736;2023-02-17T08:15:16;9.60;99.90
30648;DHT22;17683;53.360;9.736;2023-02-17T08:17:41;9.60;99.90
30648;DHT22;17683;53.360;9.736;2023-02-17T08:20:09;9.60;99.90
30648;DHT22;17683;53.360;9.736;2023-02-17T08:22:35;9.70;99.90
30648;DHT22;17683;53.360;9.736;2023-02-17T08:25:01;9.70;99.90
30648;DHT22;17683;53.360;9.736;2023-02-17T08:27:27;9.70;99.90
30648;DHT22;17683;53.360;9.736;2023-02-17T08:29:53;9.70;99.90
30648;DHT22;17683;53.360;9.736;2023-02-17T08:32:18;9.60;99.90
30648;DHT22;17683;53.360;9.736;2023-02-17T08:34:44;9.60;99.90
30648;DHT22;17683;53.360;9.736;2023-02-17T08:37:10;9.70;99.90
30648;DHT22;17683;53.360;9.736;2023-02-17T08:39:36;9.60;99.90
30648;DHT22;17683;53.360;9.736;2023-02-17T08:42:03;9.60;99.90
30648;DHT22;17683;53.360;9.736;2023-02-17T08:44:29;9.70;99.90
30648;DHT22;17683;53.360;9.736;2023-02-17T08:46:57;9.70;99.90
30648;DHT22;17683;53.360;9.736;2023-02-17T08:49:25;9.60;99.90
30648;DHT22;17683;53.360;9.736;2023-02-17T08:51:52;9.70;99.90
30648;DHT22;17683;53.360;9.736;2023-02-17T08:54:18;9.70;99.90
30648;DHT22;17683;53.360;9.736;2023-02-17T08:56:44;9.70;99.90
30648;DHT22;17683;53.360;9.736;2023-02-17T08:59:11;9.70;99.90
30648;DHT22;17683;53.360;9.736;2023-02-17T09:01:37;9.70;99.90
30648;DHT22;17683;53.360;9.736;2023-02-17T09:04:04;9.70;99.90
30648;DHT22;17683;53.360;9.736;2023-02-17T09:06:36;9.70;99.90
30648;DHT22;17683;53.360;9.736;2023-02-17T09:09:04;9.70;99.90
30648;DHT22;17683;53.360;9.736;2023-02-17T09:11:30;9.70;99.90
30648;DHT22;17683;53.360;9.736;2023-02-17T09:13:56;9.70;99.90
30648;DHT22;17683;53.360;9.736;2023-02-17T09:16:22;9.70;99.90
30648;DHT22;17683;53.360;9.736;2023-02-17T09:18:51;9.70;99.90
30648;DHT22;17683;53.360;9.736;2023-02-17T09:21:16;9.80;99.90
30648;DHT22;17683;53.360;9.736;2023-02-17T09:23:42;9.80;99.90
30648;DHT22;17683;53.360;9.736;2023-02-17T09:26:10;9.80;99.90
30648;DHT22;17683;53.360;9.736;2023-02-17T09:28:36;9.80;99.90
30648;DHT22;17683;53.360;9.736;2023-02-17T09:31:18;9.80;99.90
30648;DHT22;17683;53.360;9.736;2023-02-17T09:33:44;9.80;99.90
30648;DHT22;17683;53.360;9.736;2023-02-17T09:36:16;9.80;99.90
30648;DHT22;17683;53.360;9.736;2023-02-17T09:38:44;9.80;99.90
30648;DHT22;17683;53.360;9.736;2023-02-17T09:43:44;9.90;99.90
30648;DHT22;17683;53.360;9.736;2023-02-17T09:46:22;9.80;99.90
30648;DHT22;17683;53.360;9.736;2023-02-17T09:48:49;9.90;99.90
30648;DHT22;17683;53.360;9.736;2023-02-17T09:54:10;9.90;99.90
30648;DHT22;17683;53.360;9.736;2023-02-17T09:56:40;9.90;99.90
30648;DHT22;17683;53.360;9.736;2023-02-17T10:01:53;9.90;99.90
30648;DHT22;17683;53.360;9.736;2023-02-17T10:04:39;9.90;99.90
30648;DHT22;17683;53.360;9.736;2023-02-17T10:07:25;9.90;99.90
30648;DHT22;17683;53.360;9.736;2023-02-17T10:10:18;10.00;99.90
30648;DHT22;17683;53.360;9.736;2023-02-17T10:12:52;10.00;99.90
30648;DHT22;17683;53.360;9.736;2023-02-17T10:15:24;10.00;99.90
30648;DHT22;17683;53.360;9.736;2023-02-17T10:20:41;10.00;99.90
30648;DHT22;17683;53.360;9.736;2023-02-17T10:23:15;10.10;99.90
30648;DHT22;17683;53.360;9.736;2023-02-17T10:26:06;10.10;99.90
30648;DHT22;17683;53.360;9.736;2023-02-17T10:29:05;10.10;99.90
30648;DHT22;17683;53.360;9.736;2023-02-17T10:31:45;10.10;99.90
30648;DHT22;17683;53.360;9.736;2023-02-17T10:37:00;10.10;99.90
30648;DHT22;17683;53.360;9.736;2023-02-17T10:39:47;10.20;99.90
30648;DHT22;17683;53.360;9.736;2023-02-17T10:42:35;10.20;99.90
30648;DHT22;17683;53.360;9.736;2023-02-17T10:45:30;10.20;99.90
30648;DHT22;17683;53.360;9.736;2023-02-17T10:48:12;10.20;99.90
30648;DHT22;17683;53.360;9.736;2023-02-17T10:50:43;10.20;99.90
30648;DHT22;17683;53.360;9.736;2023-02-17T10:53:24;10.20;99.90
30648;DHT22;17683;53.360;9.736;2023-02-17T10:56:02;10.20;99.90
30648;DHT22;17683;53.360;9.736;2023-02-17T10:58:51;10.20;99.90
30648;DHT22;17683;53.360;9.736;2023-02-17T11:01:18;10.20;99.90
30648;DHT22;17683;53.360;9.736;2023-02-17T11:03:44;10.30;99.90
30648;DHT22;17683;53.360;9.736;2023-02-17T11:06:20;10.30;99.90
30648;DHT22;17683;53.360;9.736;2023-02-17T11:08:59;10.30;99.90
30648;DHT22;17683;53.360;9.736;2023-02-17T11:11:30;10.30;99.90
30648;DHT22;17683;53.360;9.736;2023-02-17T11:16:44;10.30;99.90
30648;DHT22;17683;53.360;9.736;2023-02-17T11:21:47;10.30;99.90
30648;DHT22;17683;53.360;9.736;2023-02-17T11:24:14;10.30;99.90
30648;DHT22;17683;53.360;9.736;2023-02-17T11:26:42;10.40;99.90
30648;DHT22;17683;53.360;9.736;2023-02-17T11:29:20;10.40;99.90
30648;DHT22;17683;53.360;9.736;2023-02-17T11:31:56;10.40;99.90
30648;DHT22;17683;53.360;9.736;2023-02-17T11:34:25;10.40;99.90
30648;DHT22;17683;53.360;9.736;2023-02-17T11:37:20;10.40;99.90
30648;DHT22;17683;53.360;9.736;2023-02-17T11:39:47;10.40;99.90
30648;DHT22;17683;53.360;9.736;2023-02-17T11:42:26;10.40;99.90
30648;DHT22;17683;53.360;9.736;2023-02-17T11:44:54;10.40;99.90
30648;DHT22;17683;53.360;9.736;2023-02-17T11:47:44;10.40;99.90
30648;DHT22;17683;53.360;9.736;2023-02-17T11:50:32;10.40;99.90
30648;DHT22;17683;53.360;9.736;2023-02-17T11:58:54;10.40;99.90
30648;DHT22;17683;53.360;9.736;2023-02-17T12:09:26;10.50;99.90
30648;DHT22;17683;53.360;9.736;2023-02-17T12:15:00;10.50;99.90
30648;DHT22;17683;53.360;9.736;2023-02-17T12:26:17;10.50;99.90
30648;DHT22;17683;53.360;9.736;2023-02-17T12:28:44;10.50;99.90
30648;DHT22;17683;53.360;9.736;2023-02-17T12:34:35;10.50;99.90
30648;DHT22;17683;53.360;9.736;2023-02-17T12:37:05;10.50;99.90
30648;DHT22;17683;53.360;9.736;2023-02-17T12:39:41;10.50;99.90
30648;DHT22;17683;53.360;9.736;2023-02-17T12:42:19;10.50;99.90
30648;DHT22;17683;53.360;9.736;2023-02-17T12:44:50;10.60;99.90
30648;DHT22;17683;53.360;9.736;2023-02-17T12:47:34;10.60;99.90
30648;DHT22;17683;53.360;9.736;2023-02-17T12:52:49;10.60;99.90
30648;DHT22;17683;53.360;9.736;2023-02-17T12:55:43;10.60;99.90
30648;DHT22;17683;53.360;9.736;2023-02-17T12:58:19;10.60;99.90
30648;DHT22;17683;53.360;9.736;2023-02-17T13:00:53;10.60;99.90
30648;DHT22;17683;53.360;9.736;2023-02-17T13:03:19;10.60;99.90
30648;DHT22;17683;53.360;9.736;2023-02-17T13:05:50;10.60;99.90
30648;DHT22;17683;53.360;9.736;2023-02-17T13:11:05;10.60;99.90
30648;DHT22;17683;53.360;9.736;2023-02-17T13:13:32;10.60;99.90
30648;DHT22;17683;53.360;9.736;2023-02-17T13:16:06;10.70;99.90
30648;DHT22;17683;53.360;9.736;2023-02-17T13:18:38;10.70;99.90
30648;DHT22;17683;53.360;9.736;2023-02-17T13:24:01;10.70;99.90
30648;DHT22;17683;53.360;9.736;2023-02-17T13:26:30;10.70;99.90
30648;DHT22;17683;53.360;9.736;2023-02-17T13:29:33;10.70;99.90
30648;DHT22;17683;53.360;9.736;2023-02-17T13:32:03;10.70;99.90
30648;DHT22;17683;53.360;9.736;2023-02-17T13:34:40;10.70;99.90
30648;DHT22;17683;53.360;9.736;2023-02-17T13:37:25;10.70;99.90
30648;DHT22;17683;53.360;9.736;2023-02-17T13:42:53;10.70;99.90
30648;DHT22;17683;53.360;9.736;2023-02-17T13:50:44;10.80;99.90
30648;DHT22;17683;53.360;9.736;2023-02-17T13:53:29;10.70;99.90
30648;DHT22;17683;53.360;9.736;2023-02-17T13:55:58;10.70;99.90
30648;DHT22;17683;53.360;9.736;2023-02-17T13:58:29;10.70;99.90
30648;DHT22;17683;53.360;9.736;2023-02-17T14:00:56;10.70;99.90
30648;DHT22;17683;53.360;9.736;2023-02-17T14:03:33;10.70;99.90
30648;DHT22;17683;53.360;9.736;2023-02-17T14:06:01;10.70;99.90
30648;DHT22;17683;53.360;9.736;2023-02-17T14:08:38;10.70;99.90
30648;DHT22;17683;53.360;9.736;2023-02-17T14:11:11;10.80;99.90
30648;DHT22;17683;53.360;9.736;2023-02-17T14:13:39;10.80;99.90
30648;DHT22;17683;53.360;9.736;2023-02-17T14:16:06;10.80;99.90
30648;DHT22;17683;53.360;9.736;2023-02-17T14:18:39;10.80;99.90
30648;DHT22;17683;53.360;9.736;2023-02-17T14:21:11;10.80;99.90
30648;DHT22;17683;53.360;9.736;2023-02-17T14:23:42;10.80;99.90
30648;DHT22;17683;53.360;9.736;2023-02-17T14:26:59;10.80;99.90
30648;DHT22;17683;53.360;9.736;2023-02-17T14:29:02;10.80;99.90
30648;DHT22;17683;53.360;9.736;2023-02-17T14:31:37;10.80;99.90
30648;DHT22;17683;53.360;9.736;2023-02-17T14:34:03;10.80;99.90
30648;DHT22;17683;53.360;9.736;2023-02-17T14:36:34;10.80;99.90
30648;DHT22;17683;53.360;9.736;2023-02-17T14:39:02;10.80;99.90
30648;DHT22;17683;53.360;9.736;2023-02-17T14:41:28;10.80;99.90
30648;DHT22;17683;53.360;9.736;2023-02-17T14:43:54;10.80;99.90
30648;DHT22;17683;53.360;9.736;2023-02-17T14:46:20;10.80;99.90
30648;DHT22;17683;53.360;9.736;2023-02-17T14:48:47;10.80;99.90
30648;DHT22;17683;53.360;9.736;2023-02-17T14:51:15;10.80;99.90
30648;DHT22;17683;53.360;9.736;2023-02-17T14:53:42;10.80;99.90
30648;DHT22;17683;53.360;9.736;2023-02-17T14:56:29;10.80;99.90
30648;DHT22;17683;53.360;9.736;2023-02-17T14:58:56;10.80;99.90
30648;DHT22;17683;53.360;9.736;2023-02-17T15:01:24;10.80;99.90
30648;DHT22;17683;53.360;9.736;2023-02-17T15:03:51;10.80;99.90
30648;DHT22;17683;53.360;9.736;2023-02-17T15:06:23;10.80;99.90
30648;DHT22;17683;53.360;9.736;2023-02-17T15:08:50;10.80;99.90
30648;DHT22;17683;53.360;9.736;2023-02-17T15:11:36;10.80;99.90
30648;DHT22;17683;53.360;9.736;2023-02-17T15:14:04;10.90;99.90
30648;DHT22;17683;53.360;9.736;2023-02-17T15:16:30;10.80;99.90
30648;DHT22;17683;53.360;9.736;2023-02-17T15:18:56;10.80;99.90
30648;DHT22;17683;53.360;9.736;2023-02-17T15:21:27;10.80;99.90
30648;DHT22;17683;53.360;9.736;2023-02-17T15:23:55;10.80;99.90
30648;DHT22;17683;53.360;9.736;2023-02-17T15:26:22;10.70;99.90
30648;DHT22;17683;53.360;9.736;2023-02-17T15:28:48;10.60;99.90
30648;DHT22;17683;53.360;9.736;2023-02-17T15:31:14;10.50;99.90
30648;DHT22;17683;53.360;9.736;2023-02-17T15:33:43;10.40;99.90
30648;DHT22;17683;53.360;9.736;2023-02-17T15:36:14;10.40;99.90
30648;DHT22;17683;53.360;9.736;2023-02-17T15:38:41;10.30;99.90
30648;DHT22;17683;53.360;9.736;2023-02-17T15:41:23;10.30;99.90
30648;DHT22;17683;53.360;9.736;2023-02-17T15:43:50;10.20;99.90
30648;DHT22;17683;53.360;9.736;2023-02-17T15:46:19;10.20;99.90
30648;DHT22;17683;53.360;9.736;2023-02-17T15:48:46;10.20;99.90
30648;DHT22;17683;53.360;9.736;2023-02-17T15:51:17;10.10;99.90
30648;DHT22;17683;53.360;9.736;2023-02-17T15:53:48;10.10;99.90
30648;DHT22;17683;53.360;9.736;2023-02-17T15:56:20;10.10;99.90
30648;DHT22;17683;53.360;9.736;2023-02-17T15:58:48;10.00;99.90
30648;DHT22;17683;53.360;9.736;2023-02-17T16:01:28;9.90;99.90
30648;DHT22;17683;53.360;9.736;2023-02-17T16:03:55;9.90;99.90
30648;DHT22;17683;53.360;9.736;2023-02-17T16:06:22;9.80;99.90
30648;DHT22;17683;53.360;9.736;2023-02-17T16:08:48;9.80;99.90
30648;DHT22;17683;53.360;9.736;2023-02-17T16:11:15;9.80;99.90
30648;DHT22;17683;53.360;9.736;2023-02-17T16:13:43;9.80;99.90
30648;DHT22;17683;53.360;9.736;2023-02-17T16:16:38;9.70;99.90
30648;DHT22;17683;53.360;9.736;2023-02-17T16:19:04;9.70;99.90
30648;DHT22;17683;53.360;9.736;2023-02-17T16:21:30;9.70;99.90
30648;DHT22;17683;53.360;9.736;2023-02-17T16:23:55;9.60;99.90
30648;DHT22;17683;53.360;9.736;2023-02-17T16:26:32;9.60;99.90
30648;DHT22;17683;53.360;9.736;2023-02-17T16:28:58;9.50;99.90
30648;DHT22;17683;53.360;9.736;2023-02-17T16:31:24;9.40;99.90
30648;DHT22;17683;53.360;9.736;2023-02-17T16:33:50;9.40;99.90
30648;DHT22;17683;53.360;9.736;2023-02-17T16:36:18;9.40;99.90
30648;DHT22;17683;53.360;9.736;2023-02-17T16:38:47;9.30;99.90
30648;DHT22;17683;53.360;9.736;2023-02-17T16:41:16;9.30;99.90
30648;DHT22;17683;53.360;9.736;2023-02-17T16:43:44;9.20;99.90
30648;DHT22;17683;53.360;9.736;2023-02-17T16:46:26;9.10;99.90
30648;DHT22;17683;53.360;9.736;2023-02-17T16:48:57;9.10;99.90
30648;DHT22;17683;53.360;9.736;2023-02-17T16:51:24;9.10;99.90
30648;DHT22;17683;53.360;9.736;2023-02-17T16:53:52;9.00;99.90
30648;DHT22;17683;53.360;9.736;2023-02-17T16:56:33;8.90;99.90
30648;DHT22;17683;53.360;9.736;2023-02-17T16:58:59;8.90;99.90
30648;DHT22;17683;53.360;9.736;2023-02-17T17:01:25;8.80;99.90
30648;DHT22;17683;53.360;9.736;2023-02-17T17:03:51;8.80;99.90
30648;DHT22;17683;53.360;9.736;2023-02-17T17:06:23;8.70;99.90
30648;DHT22;17683;53.360;9.736;2023-02-17T17:08:50;8.60;99.90
30648;DHT22;17683;53.360;9.736;2023-02-17T17:11:20;8.60;99.90
30648;DHT22;17683;53.360;9.736;2023-02-17T17:13:46;8.50;99.90
30648;DHT22;17683;53.360;9.736;2023-02-17T17:16:18;8.50;99.90
30648;DHT22;17683;53.360;9.736;2023-02-17T17:18:45;8.50;99.90